Time;durP1;ratioP1;P1;durP2;ratioP2;P2;SDS_P1;SDS_P2;PMS_P1;PMS_P2;Temp;Humidity;BMP_temperature;BMP_pressure;BME280_temperature;BME280_humidity;BME280_pressure;Samples;Min_cycle;Max_cycle;Signal;HPM_P1;HPM_P2
2022/07/13 00:01:31;;;;;;;0.82;0.70;;;16.10;99.90;;;;;;4990659;28;20105;-75
2022/07/13 00:03:57;;;;;;;1.13;0.75;;;16.00;99.90;;;;;;4991116;28;20029;-75
2022/07/13 00:06:23;;;;;;;1.80;0.77;;;16.00;99.90;;;;;;4989541;28;20449;-75
2022/07/13 00:08:48;;;;;;;0.63;0.63;;;16.00;99.90;;;;;;4991164;28;20030;-75
2022/07/13 00:11:14;;;;;;;0.90;0.80;;;16.00;99.90;;;;;;4990274;28;20421;-75
2022/07/13 00:13:39;;;;;;;3.88;0.70;;;16.00;99.90;;;;;;4993619;28;20081;-76
2022/07/13 00:16:05;;;;;;;0.68;0.50;;;16.00;99.90;;;;;;4990095;28;20023;-76
2022/07/13 00:18:30;;;;;;;1.25;0.82;;;16.00;99.90;;;;;;4990159;28;20701;-75
2022/07/13 00:20:57;;;;;;;0.95;0.85;;;16.10;99.90;;;;;;4989385;28;20023;-75
2022/07/13 00:23:22;;;;;;;1.20;1.10;;;16.10;99.90;;;;;;4990718;28;20026;-75
2022/07/13 00:25:48;;;;;;;1.00;0.82;;;16.10;99.90;;;;;;4990758;28;20494;-76
2022/07/13 00:28:13;;;;;;;1.27;0.98;;;16.20;99.90;;;;;;4989985;28;20062;-75
2022/07/13 00:30:39;;;;;;;2.38;1.00;;;16.20;99.90;;;;;;4990332;28;20026;-75
2022/07/13 00:33:05;;;;;;;1.10;1.05;;;16.20;99.90;;;;;;4991074;28;20576;-75
2022/07/13 00:35:30;;;;;;;2.22;0.90;;;16.30;99.90;;;;;;4990155;28;20038;-76
2022/07/13 00:37:56;;;;;;;1.52;0.95;;;16.30;99.90;;;;;;4989695;28;20066;-75
2022/07/13 00:40:22;;;;;;;1.17;0.75;;;16.30;99.90;;;;;;4990171;28;20367;-75
2022/07/13 00:42:47;;;;;;;0.70;0.60;;;16.40;99.90;;;;;;4989070;28;20469;-75
2022/07/13 00:45:13;;;;;;;0.68;0.65;;;16.40;99.90;;;;;;4989679;28;21018;-75
2022/07/13 00:47:39;;;;;;;0.68;0.60;;;16.50;99.90;;;;;;4990608;28;20030;-75
2022/07/13 00:50:06;;;;;;;1.35;0.82;;;16.50;99.90;;;;;;4988901;28;20035;-76
2022/07/13 00:52:34;;;;;;;1.08;0.77;;;16.50;99.90;;;;;;4988404;28;20050;-76
2022/07/13 00:55:01;;;;;;;0.70;0.63;;;16.50;99.90;;;;;;4989113;28;20037;-76
2022/07/13 00:57:27;;;;;;;1.38;1.00;;;16.50;99.90;;;;;;4990216;28;20041;-75
2022/07/13 00:59:53;;;;;;;0.70;0.70;;;16.50;99.90;;;;;;4988780;28;20041;-76
2022/07/13 01:02:19;;;;;;;1.27;0.90;;;16.60;99.90;;;;;;4987574;28;20035;-75
2022/07/13 01:04:44;;;;;;;0.93;0.90;;;16.60;99.90;;;;;;4988667;28;20385;-76
2022/07/13 01:07:10;;;;;;;1.75;0.77;;;16.60;99.90;;;;;;4989042;28;20038;-76
2022/07/13 01:09:36;;;;;;;1.00;0.90;;;16.70;99.90;;;;;;4989444;28;20042;-76
2022/07/13 01:12:01;;;;;;;1.35;0.85;;;16.70;99.90;;;;;;4989821;28;20030;-76
2022/07/13 01:14:29;;;;;;;1.00;0.77;;;16.70;99.90;;;;;;4988861;28;20085;-76
2022/07/13 01:16:55;;;;;;;1.23;0.73;;;16.70;99.90;;;;;;4982735;28;20030;-76
2022/07/13 01:19:21;;;;;;;0.68;0.60;;;16.70;99.90;;;;;;4987110;28;20090;-76
2022/07/13 01:21:51;;;;;;;0.73;0.65;;;16.70;99.90;;;;;;4990521;28;20721;-76
2022/07/13 01:24:16;;;;;;;1.23;0.73;;;16.70;99.90;;;;;;4989962;28;20054;-76
2022/07/13 01:26:42;;;;;;;1.20;0.85;;;16.70;99.90;;;;;;4989356;28;20464;-76
2022/07/13 01:29:08;;;;;;;1.42;1.23;;;16.70;99.90;;;;;;4987008;28;20031;-76
2022/07/13 01:31:39;;;;;;;2.28;1.45;;;16.70;99.90;;;;;;4989693;28;20485;-76
2022/07/13 01:34:06;;;;;;;1.17;0.80;;;16.80;99.90;;;;;;4989055;28;20513;-76
2022/07/13 01:36:33;;;;;;;0.60;0.60;;;16.70;99.90;;;;;;4989171;28;20402;-76
2022/07/13 01:38:58;;;;;;;2.05;1.23;;;16.80;99.90;;;;;;4989508;28;20038;-76
2022/07/13 01:41:26;;;;;;;0.80;0.80;;;16.70;99.90;;;;;;4989344;28;20500;-76
2022/07/13 01:43:51;;;;;;;0.80;0.70;;;16.70;99.90;;;;;;4990215;28;20034;-76
2022/07/13 01:46:17;;;;;;;0.90;0.90;;;16.80;99.90;;;;;;4989526;28;20409;-76
2022/07/13 01:48:42;;;;;;;1.05;0.73;;;16.70;99.90;;;;;;4989220;28;20037;-76
2022/07/13 01:51:08;;;;;;;0.70;0.70;;;16.80;99.90;;;;;;4988960;28;20026;-76
2022/07/13 01:53:34;;;;;;;1.55;1.15;;;17.00;99.90;;;;;;4987836;28;20093;-76
2022/07/13 01:55:59;;;;;;;1.30;1.02;;;17.10;99.90;;;;;;4989633;28;20042;-77
2022/07/13 01:58:26;;;;;;;3.15;0.90;;;17.20;99.90;;;;;;4989383;28;20844;-76
2022/07/13 02:00:52;;;;;;;0.75;0.63;;;17.30;99.90;;;;;;4989674;28;20053;-76
2022/07/13 02:03:17;;;;;;;0.73;0.55;;;17.40;99.90;;;;;;4989066;28;20069;-76
2022/07/13 02:05:43;;;;;;;0.90;0.90;;;17.50;99.90;;;;;;4990093;28;20433;-76
2022/07/13 02:08:08;;;;;;;1.10;1.00;;;17.40;99.90;;;;;;4989368;28;20022;-76
2022/07/13 02:10:37;;;;;;;0.75;0.75;;;17.50;99.90;;;;;;4989102;28;20031;-76
2022/07/13 02:13:08;;;;;;;1.00;0.80;;;17.50;99.90;;;;;;4987712;28;20045;-76
2022/07/13 02:15:33;;;;;;;1.00;0.70;;;17.50;99.90;;;;;;4981140;28;20026;-76
2022/07/13 02:17:59;;;;;;;0.70;0.70;;;17.40;99.90;;;;;;4988717;28;20038;-76
2022/07/13 02:20:25;;;;;;;2.17;0.98;;;17.30;99.90;;;;;;4987295;28;20113;-76
2022/07/13 02:22:50;;;;;;;0.50;0.50;;;17.30;99.90;;;;;;4995276;28;20035;-76
2022/07/13 02:25:15;;;;;;;1.10;0.80;;;17.30;99.90;;;;;;4988790;28;20073;-76
2022/07/13 02:27:42;;;;;;;1.02;0.82;;;17.20;99.90;;;;;;4992219;28;20030;-76
2022/07/13 02:30:09;;;;;;;2.13;0.70;;;17.20;99.90;;;;;;4995550;28;20029;-76
2022/07/13 02:32:34;;;;;;;0.70;0.68;;;17.10;99.90;;;;;;4993384;28;20033;-76
2022/07/13 02:35:00;;;;;;;0.80;0.80;;;17.10;99.90;;;;;;4993081;28;20026;-76
2022/07/13 02:37:25;;;;;;;0.95;0.90;;;17.00;99.90;;;;;;4992915;28;20523;-76
2022/07/13 02:39:53;;;;;;;0.68;0.68;;;16.90;99.90;;;;;;4993377;28;20046;-76
2022/07/13 02:42:18;;;;;;;1.45;0.90;;;16.90;99.90;;;;;;4992904;28;20130;-76
2022/07/13 02:44:44;;;;;;;1.48;0.57;;;16.90;99.90;;;;;;4991281;28;20733;-76
2022/07/13 02:47:10;;;;;;;0.68;0.68;;;16.90;99.90;;;;;;4991995;28;20057;-76
2022/07/13 02:49:35;;;;;;;0.95;0.82;;;16.90;99.90;;;;;;4993218;28;20639;-75
2022/07/13 02:52:00;;;;;;;0.88;0.77;;;16.90;99.90;;;;;;4992838;28;20129;-76
2022/07/13 02:54:26;;;;;;;1.17;0.80;;;16.90;99.90;;;;;;4992197;28;20027;-76
2022/07/13 02:56:51;;;;;;;0.70;0.70;;;17.00;99.90;;;;;;4992122;28;20121;-76
2022/07/13 02:59:17;;;;;;;0.70;0.70;;;17.00;99.90;;;;;;4993095;28;20469;-76
2022/07/13 03:01:43;;;;;;;0.80;0.63;;;17.00;99.90;;;;;;4992107;28;20473;-76
2022/07/13 03:04:08;;;;;;;0.80;0.70;;;17.00;99.90;;;;;;4992604;28;20018;-76
2022/07/13 03:06:34;;;;;;;1.98;0.73;;;17.00;99.90;;;;;;4985855;28;20485;-76
2022/07/13 03:08:59;;;;;;;1.10;1.00;;;17.00;99.90;;;;;;4992621;28;20030;-76
2022/07/13 03:11:25;;;;;;;2.10;0.77;;;17.00;99.90;;;;;;4991042;28;20113;-76
2022/07/13 03:13:50;;;;;;;1.10;1.00;;;17.00;99.90;;;;;;4992365;28;20030;-76
2022/07/13 03:16:15;;;;;;;0.63;0.50;;;17.00;99.90;;;;;;4987409;28;20121;-76
2022/07/13 03:18:41;;;;;;;0.63;0.63;;;17.00;99.90;;;;;;4991652;28;20018;-77
2022/07/13 03:21:09;;;;;;;1.15;0.70;;;16.90;99.90;;;;;;4991922;28;20030;-76
2022/07/13 03:23:36;;;;;;;1.65;0.95;;;17.00;99.90;;;;;;4991355;28;20215;-76
2022/07/13 03:26:02;;;;;;;1.17;0.63;;;17.00;99.90;;;;;;4992807;28;20026;-76
2022/07/13 03:28:27;;;;;;;1.25;0.95;;;16.90;99.90;;;;;;4992172;28;20040;-76
2022/07/13 03:30:53;;;;;;;1.83;1.10;;;17.00;99.90;;;;;;4991231;28;20026;-76
2022/07/13 03:33:18;;;;;;;1.00;1.00;;;16.90;99.90;;;;;;4990790;28;20037;-76
2022/07/13 03:35:44;;;;;;;0.60;0.60;;;16.90;99.90;;;;;;4990763;28;20074;-76
2022/07/13 03:38:09;;;;;;;1.10;0.93;;;16.90;99.90;;;;;;4990586;28;20110;-76
2022/07/13 03:40:35;;;;;;;0.55;0.52;;;17.00;99.90;;;;;;4988894;28;20038;-76
2022/07/13 03:43:00;;;;;;;1.75;0.98;;;17.00;99.90;;;;;;4991564;28;20026;-76
2022/07/13 03:45:26;;;;;;;0.65;0.65;;;17.00;99.90;;;;;;4991632;28;20080;-76
2022/07/13 03:47:51;;;;;;;1.20;0.77;;;17.00;99.90;;;;;;4991162;28;20112;-76
2022/07/13 03:50:17;;;;;;;0.60;0.60;;;17.00;99.90;;;;;;4989190;28;20041;-76
2022/07/13 03:52:43;;;;;;;0.70;0.70;;;17.00;99.90;;;;;;4991084;28;20045;-76
2022/07/13 03:55:08;;;;;;;1.08;0.98;;;17.10;99.90;;;;;;4990603;28;20053;-76
2022/07/13 03:57:34;;;;;;;0.80;0.63;;;17.20;99.90;;;;;;4991250;28;20120;-77
2022/07/13 04:00:00;;;;;;;0.65;0.65;;;17.20;99.90;;;;;;4990096;28;20410;-76
2022/07/13 04:02:25;;;;;;;0.80;0.70;;;17.30;99.90;;;;;;4986773;28;20035;-76
2022/07/13 04:04:51;;;;;;;3.05;0.80;;;17.40;99.90;;;;;;4983077;28;20184;-76
2022/07/13 04:07:17;;;;;;;1.17;0.65;;;17.40;99.90;;;;;;4982521;28;20489;-76
2022/07/13 04:09:42;;;;;;;1.23;0.77;;;17.50;99.90;;;;;;4982761;28;20473;-76
2022/07/13 04:12:08;;;;;;;1.27;1.10;;;17.50;99.90;;;;;;4983373;28;20040;-77
2022/07/13 04:14:33;;;;;;;1.27;0.85;;;17.60;99.90;;;;;;4982670;28;20030;-75
2022/07/13 04:16:58;;;;;;;1.38;1.00;;;17.60;99.90;;;;;;4981949;28;20034;-76
2022/07/13 04:19:24;;;;;;;0.80;0.75;;;17.70;99.90;;;;;;4982885;28;20022;-76
2022/07/13 04:21:49;;;;;;;1.63;0.90;;;17.70;99.90;;;;;;4981273;28;20564;-75
2022/07/13 04:24:15;;;;;;;0.85;0.77;;;17.80;99.90;;;;;;4981830;28;20030;-76
2022/07/13 04:26:40;;;;;;;1.77;1.42;;;17.80;99.90;;;;;;4985509;28;20029;-78
2022/07/13 04:29:06;;;;;;;0.82;0.80;;;17.90;99.90;;;;;;4989053;28;20393;-77
2022/07/13 04:31:31;;;;;;;0.68;0.68;;;17.90;99.90;;;;;;4984412;28;20054;-78
2022/07/13 04:33:57;;;;;;;0.80;0.80;;;18.00;99.90;;;;;;4990321;28;20034;-79
2022/07/13 04:36:22;;;;;;;0.90;0.80;;;18.00;99.90;;;;;;4985774;28;20145;-77
2022/07/13 04:38:48;;;;;;;0.70;0.68;;;18.10;99.90;;;;;;4989353;28;20126;-77
2022/07/13 04:41:13;;;;;;;1.45;1.00;;;18.10;99.90;;;;;;4987251;28;20498;-76
2022/07/13 04:43:39;;;;;;;0.80;0.70;;;18.10;99.90;;;;;;4989230;28;20026;-77
2022/07/13 04:46:04;;;;;;;1.00;0.90;;;18.10;99.90;;;;;;4984924;28;20017;-78
2022/07/13 04:48:30;;;;;;;1.35;1.20;;;18.10;99.90;;;;;;4988232;28;20030;-77
2022/07/13 04:50:55;;;;;;;0.80;0.80;;;18.20;99.90;;;;;;4989333;28;20117;-76
2022/07/13 04:53:21;;;;;;;0.70;0.70;;;18.30;99.90;;;;;;4989171;28;20539;-76
2022/07/13 04:55:46;;;;;;;1.98;0.90;;;18.40;99.90;;;;;;4989932;28;20028;-76
2022/07/13 04:58:12;;;;;;;1.25;0.88;;;18.40;99.90;;;;;;4989282;28;20384;-77
2022/07/13 05:00:38;;;;;;;1.20;0.80;;;18.40;99.90;;;;;;4989625;28;20030;-76
2022/07/13 05:03:03;;;;;;;0.98;0.88;;;18.40;99.90;;;;;;4988089;28;20049;-76
2022/07/13 05:05:31;;;;;;;1.15;0.90;;;18.50;99.90;;;;;;4971348;28;20121;-76
2022/07/13 05:07:59;;;;;;;1.45;1.10;;;18.60;99.90;;;;;;4989444;28;20535;-76
2022/07/13 05:10:25;;;;;;;0.85;0.85;;;18.70;99.90;;;;;;4989057;28;20076;-76
2022/07/13 05:12:50;;;;;;;0.88;0.80;;;18.60;99.90;;;;;;4989530;28;20487;-76
2022/07/13 05:15:17;;;;;;;1.30;1.00;;;18.70;99.90;;;;;;4987646;28;20168;-76
2022/07/13 05:17:43;;;;;;;2.00;0.88;;;18.80;99.90;;;;;;4989884;28;20037;-76
2022/07/13 05:20:09;;;;;;;1.10;0.90;;;18.80;99.90;;;;;;4988790;28;20022;-77
2022/07/13 05:22:35;;;;;;;0.70;0.70;;;19.00;99.90;;;;;;4989012;28;20144;-77
2022/07/13 05:25:00;;;;;;;0.70;0.70;;;19.00;99.90;;;;;;4989534;28;20019;-77
2022/07/13 05:27:26;;;;;;;1.33;1.08;;;19.10;99.90;;;;;;4988995;28;20125;-77
2022/07/13 05:29:51;;;;;;;0.98;0.85;;;19.10;99.90;;;;;;4989481;28;20550;-77
2022/07/13 05:32:17;;;;;;;2.40;1.20;;;19.20;99.90;;;;;;4988414;28;20034;-77
2022/07/13 05:34:43;;;;;;;0.85;0.73;;;19.20;99.90;;;;;;4988416;28;20038;-76
2022/07/13 05:37:09;;;;;;;3.55;1.10;;;19.30;99.90;;;;;;4987848;28;20046;-76
2022/07/13 05:39:34;;;;;;;1.15;1.05;;;19.30;99.90;;;;;;4988883;28;20040;-76
2022/07/13 05:42:00;;;;;;;0.70;0.70;;;19.30;99.90;;;;;;4988626;28;20054;-77
2022/07/13 05:44:25;;;;;;;1.23;0.93;;;19.30;99.90;;;;;;4987820;28;20041;-76
2022/07/13 05:46:51;;;;;;;2.03;1.30;;;19.20;99.90;;;;;;4986520;28;20520;-76
2022/07/13 05:49:16;;;;;;;2.13;1.30;;;19.30;99.90;;;;;;4988066;28;20389;-77
2022/07/13 05:51:41;;;;;;;0.80;0.80;;;19.40;99.90;;;;;;4988666;28;20034;-77
2022/07/13 05:54:07;;;;;;;1.27;1.10;;;19.40;99.90;;;;;;4988466;28;20469;-76
2022/07/13 05:56:33;;;;;;;1.55;1.40;;;19.60;99.90;;;;;;4988530;28;20034;-76
2022/07/13 05:58:59;;;;;;;1.00;0.80;;;19.70;99.90;;;;;;4988444;28;20042;-76
2022/07/13 06:01:24;;;;;;;1.25;0.98;;;19.80;99.90;;;;;;4988172;28;20385;-77
2022/07/13 06:03:50;;;;;;;1.42;0.77;;;19.80;99.90;;;;;;4986585;28;20114;-77
2022/07/13 06:06:16;;;;;;;1.80;0.65;;;19.90;99.90;;;;;;4988308;28;20050;-80
2022/07/13 06:08:42;;;;;;;0.77;0.77;;;20.00;99.90;;;;;;4988718;28;20019;-77
2022/07/13 06:11:07;;;;;;;1.05;0.90;;;20.00;99.90;;;;;;4988029;28;20174;-78
2022/07/13 06:13:32;;;;;;;0.60;0.60;;;20.10;99.90;;;;;;4988527;28;20132;-76
2022/07/13 06:15:59;;;;;;;0.88;0.88;;;20.20;99.90;;;;;;4987019;28;20105;-76
2022/07/13 06:18:25;;;;;;;1.02;0.90;;;20.40;99.90;;;;;;4988676;28;20105;-82
2022/07/13 06:20:50;;;;;;;1.23;0.90;;;20.50;99.90;;;;;;4987284;28;20109;-80
2022/07/13 06:23:16;;;;;;;1.73;1.20;;;20.60;99.90;;;;;;4989024;28;20045;-79
2022/07/13 06:25:45;;;;;;;0.95;0.88;;;20.80;98.60;;;;;;4987646;28;20018;-80
2022/07/13 06:28:10;;;;;;;0.60;0.60;;;20.80;98.20;;;;;;4987781;28;20493;-78
2022/07/13 06:30:36;;;;;;;3.90;1.52;;;20.80;97.70;;;;;;4987491;28;20062;-76
2022/07/13 06:33:02;;;;;;;1.83;0.80;;;20.80;97.70;;;;;;4987580;28;20030;-77
2022/07/13 06:35:29;;;;;;;0.77;0.77;;;20.90;96.80;;;;;;4986899;28;20022;-78
2022/07/13 06:37:54;;;;;;;0.80;0.80;;;20.90;96.60;;;;;;4987493;28;20046;-77
2022/07/13 06:40:20;;;;;;;2.40;1.17;;;20.90;97.40;;;;;;4987264;28;20022;-76
2022/07/13 06:42:45;;;;;;;1.08;0.60;;;21.00;97.00;;;;;;4988058;28;20252;-77
2022/07/13 06:45:11;;;;;;;1.95;1.00;;;21.20;96.90;;;;;;4987481;28;20022;-77
2022/07/13 06:47:37;;;;;;;1.30;1.15;;;21.20;96.00;;;;;;4987055;28;20496;-77
2022/07/13 06:50:03;;;;;;;1.85;0.88;;;21.30;95.70;;;;;;4987460;28;20022;-78
2022/07/13 06:52:28;;;;;;;0.85;0.82;;;21.50;94.50;;;;;;4986719;28;20088;-77
2022/07/13 06:54:54;;;;;;;1.33;1.00;;;21.60;95.00;;;;;;4987673;28;20034;-77
2022/07/13 06:57:19;;;;;;;2.00;0.73;;;21.60;94.10;;;;;;4987712;28;20541;-78
2022/07/13 06:59:45;;;;;;;0.80;0.80;;;21.60;93.90;;;;;;4984523;28;20109;-80
2022/07/13 07:02:10;;;;;;;2.45;1.27;;;21.70;93.80;;;;;;4983496;28;20034;-76
2022/07/13 07:04:36;;;;;;;2.20;1.42;;;21.70;93.70;;;;;;4984333;28;20030;-76
2022/07/13 07:07:02;;;;;;;0.70;0.70;;;21.70;93.00;;;;;;4987715;28;20377;-75
2022/07/13 07:09:27;;;;;;;0.63;0.52;;;21.80;93.10;;;;;;4981352;28;20046;-76
2022/07/13 07:11:52;;;;;;;1.20;1.10;;;21.90;92.70;;;;;;4985594;28;20026;-76
2022/07/13 07:14:18;;;;;;;0.70;0.70;;;22.10;92.70;;;;;;4989648;28;20030;-75
2022/07/13 07:16:43;;;;;;;1.20;0.80;;;22.20;92.70;;;;;;4990081;28;20474;-74
2022/07/13 07:19:10;;;;;;;1.35;0.93;;;22.20;92.80;;;;;;4990738;28;20041;-74
2022/07/13 07:21:35;;;;;;;2.13;0.80;;;22.20;92.20;;;;;;4991231;28;20113;-73
2022/07/13 07:24:01;;;;;;;1.35;0.75;;;22.40;92.90;;;;;;4983951;28;20105;-74
2022/07/13 07:26:26;;;;;;;1.27;0.85;;;22.50;91.50;;;;;;4987982;28;20030;-73
2022/07/13 07:28:52;;;;;;;4.15;0.90;;;22.60;91.60;;;;;;4980720;28;20030;-77
2022/07/13 07:31:17;;;;;;;0.90;0.73;;;22.70;90.30;;;;;;4987180;28;20027;-77
2022/07/13 07:33:43;;;;;;;0.90;0.90;;;22.70;90.20;;;;;;4989326;28;20077;-78
2022/07/13 07:36:08;;;;;;;0.85;0.85;;;22.80;89.80;;;;;;4990721;28;20049;-77
2022/07/13 07:38:34;;;;;;;0.95;0.77;;;22.90;90.30;;;;;;4990734;28;20030;-77
2022/07/13 07:41:01;;;;;;;1.45;0.80;;;23.10;88.70;;;;;;4990638;28;20046;-78
2022/07/13 07:43:26;;;;;;;1.00;0.73;;;23.20;89.10;;;;;;4990650;28;20058;-78
2022/07/13 07:45:52;;;;;;;0.82;0.75;;;23.20;88.20;;;;;;4990806;28;20430;-77
2022/07/13 07:48:17;;;;;;;1.00;0.95;;;23.30;85.30;;;;;;4988754;28;20032;-78
2022/07/13 07:50:43;;;;;;;1.58;1.10;;;23.30;84.90;;;;;;4990552;28;20029;-77
2022/07/13 07:53:08;;;;;;;1.42;0.98;;;23.40;84.50;;;;;;4990797;28;20030;-78
2022/07/13 07:55:34;;;;;;;2.47;0.70;;;23.30;85.80;;;;;;4990281;28;20476;-77
2022/07/13 07:57:59;;;;;;;0.90;0.80;;;23.40;85.60;;;;;;4990527;28;20069;-77
2022/07/13 08:00:25;;;;;;;0.85;0.73;;;23.40;84.40;;;;;;4990442;28;20045;-76
2022/07/13 08:02:50;;;;;;;0.70;0.70;;;23.60;84.50;;;;;;4990665;28;20026;-77
2022/07/13 08:05:16;;;;;;;0.73;0.73;;;23.70;83.20;;;;;;4990293;28;20061;-76
2022/07/13 08:07:43;;;;;;;0.70;0.70;;;23.80;81.10;;;;;;4990923;28;20022;-77
2022/07/13 08:10:13;;;;;;;1.05;1.02;;;23.70;81.30;;;;;;4990470;28;20031;-77
2022/07/13 08:12:39;;;;;;;0.80;0.70;;;23.70;80.30;;;;;;4990047;28;20630;-77
2022/07/13 08:15:07;;;;;;;0.93;0.80;;;23.80;81.40;;;;;;4990579;28;20026;-77
2022/07/13 08:17:34;;;;;;;0.80;0.80;;;24.00;80.30;;;;;;4990213;28;20120;-76
2022/07/13 08:20:00;;;;;;;0.70;0.70;;;24.20;79.80;;;;;;4990345;28;20601;-77
2022/07/13 08:22:25;;;;;;;0.85;0.60;;;24.10;79.40;;;;;;4990139;28;20255;-76
2022/07/13 08:24:51;;;;;;;1.05;0.85;;;24.30;76.30;;;;;;4990253;28;20033;-77
2022/07/13 08:27:16;;;;;;;0.70;0.57;;;24.20;76.30;;;;;;4990091;28;20055;-78
2022/07/13 08:29:42;;;;;;;0.60;0.60;;;24.40;75.80;;;;;;4989954;28;20037;-79
2022/07/13 08:32:08;;;;;;;0.73;0.73;;;24.40;73.70;;;;;;4990255;28;20018;-77
2022/07/13 08:40:10;;;;;;;0.98;0.75;;;24.30;72.90;;;;;;4990107;28;20107;-77
2022/07/13 08:42:36;;;;;;;0.80;0.70;;;24.60;71.60;;;;;;4989485;28;20492;-76
2022/07/13 08:45:03;;;;;;;0.70;0.70;;;24.60;72.00;;;;;;4989768;28;20030;-78
2022/07/13 08:47:30;;;;;;;0.63;0.63;;;24.80;73.50;;;;;;4987172;28;20030;-77
2022/07/13 08:50:04;;;;;;;0.77;0.77;;;25.10;69.80;;;;;;4989670;28;20105;-77
2022/07/13 08:52:30;;;;;;;2.80;1.10;;;25.30;70.00;;;;;;4989713;28;20026;-77
2022/07/13 08:54:57;;;;;;;0.70;0.70;;;25.50;70.50;;;;;;4989315;28;20100;-76
2022/07/13 08:57:23;;;;;;;0.65;0.65;;;25.60;67.70;;;;;;4989089;28;20038;-77
2022/07/13 08:59:50;;;;;;;1.20;0.90;;;25.50;68.80;;;;;;4989153;28;20390;-77
2022/07/13 09:02:23;;;;;;;0.85;0.80;;;25.50;67.70;;;;;;4989653;28;20133;-76
2022/07/13 09:04:49;;;;;;;0.80;0.80;;;25.60;68.50;;;;;;4988225;28;20168;-73
2022/07/13 09:07:15;;;;;;;0.68;0.65;;;25.90;69.60;;;;;;4985852;28;20037;-76
2022/07/13 09:09:40;;;;;;;1.00;0.90;;;25.90;68.80;;;;;;4985391;28;20156;-72
2022/07/13 09:12:30;;;;;;;0.65;0.65;;;26.00;67.20;;;;;;4989550;28;20301;-72
2022/07/13 09:15:03;;;;;;;1.10;1.00;;;25.80;66.00;;;;;;4989530;28;20085;-73
2022/07/13 09:17:40;;;;;;;1.42;0.82;;;25.70;66.00;;;;;;4987369;28;20038;-73
2022/07/13 09:20:15;;;;;;;1.77;0.90;;;25.80;66.70;;;;;;4989107;28;20117;-73
2022/07/13 09:22:48;;;;;;;0.80;0.60;;;25.90;67.30;;;;;;4989131;28;20097;-73
2022/07/13 09:25:33;;;;;;;0.52;0.52;;;26.10;64.90;;;;;;4988650;28;20057;-74
2022/07/13 09:28:07;;;;;;;0.88;0.80;;;26.10;67.30;;;;;;4989126;28;20045;-73
2022/07/13 09:30:36;;;;;;;0.73;0.73;;;26.40;65.80;;;;;;4989154;28;20188;-73
2022/07/13 09:33:03;;;;;;;1.35;0.88;;;26.50;66.00;;;;;;4988560;28;20022;-71
2022/07/13 09:35:46;;;;;;;0.70;0.70;;;26.60;62.80;;;;;;4987531;28;20500;-73
2022/07/13 09:38:29;;;;;;;0.60;0.60;;;26.40;62.50;;;;;;4987785;28;20489;-73
2022/07/13 09:40:56;;;;;;;1.10;1.00;;;26.50;64.60;;;;;;4987771;28;20030;-73
2022/07/13 09:46:09;;;;;;;1.00;0.95;;;26.60;63.40;;;;;;4984575;28;20096;-73
2022/07/13 09:48:38;;;;;;;1.05;0.77;;;26.60;61.50;;;;;;4983673;28;20124;-74
2022/07/13 09:51:05;;;;;;;0.57;0.57;;;26.60;61.00;;;;;;4983614;28;20520;-73
2022/07/13 09:53:33;;;;;;;0.60;0.60;;;26.70;61.80;;;;;;4983094;28;20018;-73
2022/07/13 09:56:00;;;;;;;0.80;0.80;;;26.70;62.70;;;;;;4986659;28;20060;-74
2022/07/13 09:58:28;;;;;;;0.70;0.70;;;26.90;61.70;;;;;;4980862;28;20410;-74
2022/07/13 10:00:56;;;;;;;1.60;0.85;;;26.90;61.70;;;;;;4982123;28;20425;-73
2022/07/13 10:03:22;;;;;;;0.73;0.73;;;26.90;61.00;;;;;;4985170;28;20034;-74
2022/07/13 10:05:51;;;;;;;0.70;0.70;;;26.90;60.50;;;;;;4982556;28;20029;-74
2022/07/13 10:08:17;;;;;;;0.55;0.55;;;27.10;60.30;;;;;;4981396;28;20045;-75
2022/07/13 10:10:44;;;;;;;1.00;0.93;;;27.30;61.10;;;;;;4980303;28;20031;-73
2022/07/13 10:13:11;;;;;;;0.98;0.88;;;27.30;60.60;;;;;;4983177;28;20382;-75
2022/07/13 10:15:37;;;;;;;0.68;0.68;;;27.20;61.90;;;;;;4978554;28;20053;-74
2022/07/13 10:18:05;;;;;;;0.98;0.88;;;27.40;62.00;;;;;;4983676;28;20117;-73
2022/07/13 10:20:31;;;;;;;1.27;0.98;;;27.70;59.70;;;;;;4982666;28;20026;-75
2022/07/13 10:22:57;;;;;;;0.57;0.57;;;27.80;59.70;;;;;;4978551;28;20033;-73
2022/07/13 10:25:24;;;;;;;0.70;0.70;;;27.80;60.80;;;;;;4979629;28;20018;-75
2022/07/13 10:28:05;;;;;;;0.75;0.75;;;27.80;59.30;;;;;;4983654;28;20030;-74
2022/07/13 10:30:30;;;;;;;;;;;27.80;56.90;;;;;;4981107;28;20676;-74
2022/07/13 10:33:17;;;;;;;0.70;0.70;;;27.90;55.80;;;;;;4988582;28;19920;-73
2022/07/13 10:35:47;;;;;;;0.82;0.82;;;27.80;56.60;;;;;;4987572;28;20034;-74
2022/07/13 10:38:26;;;;;;;1.23;0.77;;;27.90;56.80;;;;;;4988279;28;20030;-73
2022/07/13 10:41:23;;;;;;;1.00;0.90;;;28.00;58.90;;;;;;4988122;28;20576;-73
2022/07/13 10:44:01;;;;;;;0.80;0.80;;;28.60;56.80;;;;;;4988424;28;20088;-73
2022/07/13 10:46:49;;;;;;;0.80;0.80;;;29.10;55.00;;;;;;4980610;28;20389;-74
2022/07/13 10:49:35;;;;;;;0.98;0.95;;;29.00;54.70;;;;;;4988642;28;20034;-74
2022/07/13 10:52:19;;;;;;;0.70;0.70;;;29.00;55.20;;;;;;4990076;28;20026;-73
2022/07/13 10:55:03;;;;;;;0.88;0.70;;;28.90;55.20;;;;;;4987845;28;20377;-76
2022/07/13 10:57:30;;;;;;;0.70;0.70;;;29.00;55.00;;;;;;4981666;28;20389;-75
2022/07/13 11:00:28;;;;;;;0.90;0.85;;;28.90;55.70;;;;;;4992144;28;20089;-76
2022/07/13 11:03:26;;;;;;;0.98;0.88;;;28.50;56.30;;;;;;4991389;28;20726;-78
2022/07/13 11:06:15;;;;;;;1.58;1.02;;;28.20;55.90;;;;;;4990571;28;20022;-76
2022/07/13 11:09:28;;;;;;;0.90;0.90;;;28.10;55.10;;;;;;4990879;28;20042;-76
2022/07/13 11:11:53;;;;;;;0.88;0.88;;;27.90;53.90;;;;;;4991554;28;20123;-77
2022/07/13 11:14:40;;;;;;;6.80;0.82;;;27.60;55.90;;;;;;4991588;28;20031;-75
2022/07/13 11:17:14;;;;;;;4.55;1.65;;;27.50;55.40;;;;;;4991632;28;20026;-76
2022/07/13 11:19:52;;;;;;;0.80;0.80;;;27.40;55.70;;;;;;4991169;28;20026;-77
2022/07/13 11:22:18;;;;;;;0.70;0.70;;;27.30;55.50;;;;;;4991467;28;20022;-76
2022/07/13 11:25:14;;;;;;;1.33;0.88;;;27.20;56.10;;;;;;4991206;28;20034;-77
2022/07/13 11:28:07;;;;;;;0.73;0.73;;;27.30;56.10;;;;;;4991026;28;20026;-77
2022/07/13 11:30:35;;;;;;;4.60;0.80;;;27.20;56.40;;;;;;4990987;28;20033;-77
2022/07/13 11:33:01;;;;;;;0.70;0.70;;;27.10;57.90;;;;;;4991017;28;20046;-78
2022/07/13 11:35:26;;;;;;;0.95;0.90;;;27.00;57.80;;;;;;4990937;28;20393;-77
2022/07/13 11:37:53;;;;;;;0.73;0.73;;;27.00;56.60;;;;;;4990654;28;20131;-76
2022/07/13 11:40:32;;;;;;;1.25;1.15;;;26.90;57.40;;;;;;4991198;28;20410;-77
2022/07/13 11:43:02;;;;;;;0.90;0.90;;;27.10;57.40;;;;;;4991319;28;20026;-76
2022/07/13 11:45:30;;;;;;;2.50;1.35;;;27.10;57.70;;;;;;4990903;28;20019;-77
2022/07/13 11:48:00;;;;;;;1.48;1.20;;;27.20;56.70;;;;;;4988790;28;20023;-76
2022/07/13 11:50:50;;;;;;;1.00;0.90;;;27.40;56.40;;;;;;4990457;28;20023;-77
2022/07/13 11:53:29;;;;;;;1.33;0.93;;;27.60;54.60;;;;;;4990990;28;20169;-77
2022/07/13 11:56:04;;;;;;;1.27;1.00;;;27.80;54.30;;;;;;4990826;28;20022;-76
2022/07/13 11:58:32;;;;;;;0.80;0.80;;;27.80;53.70;;;;;;4989467;28;20030;-76
2022/07/13 12:01:00;;;;;;;0.82;0.82;;;28.00;53.80;;;;;;4990595;28;20489;-76
2022/07/13 12:03:29;;;;;;;1.08;0.88;;;28.20;54.00;;;;;;4990361;28;20397;-77
2022/07/13 12:06:03;;;;;;;1.08;0.98;;;28.70;54.70;;;;;;4990349;28;20406;-76
2022/07/13 12:08:31;;;;;;;1.02;1.00;;;28.90;53.70;;;;;;4990393;28;20385;-76
2022/07/13 12:10:56;;;;;;;0.90;0.90;;;28.80;54.30;;;;;;4990510;28;20038;-77
2022/07/13 12:13:22;;;;;;;1.48;1.13;;;29.10;53.00;;;;;;4990226;28;20026;-76
2022/07/13 12:15:48;;;;;;;2.33;0.90;;;29.40;53.00;;;;;;4990158;28;20033;-77
2022/07/13 12:18:14;;;;;;;1.30;1.20;;;29.80;52.00;;;;;;4990358;28;20076;-77
2022/07/13 12:20:40;;;;;;;1.63;0.95;;;30.20;51.20;;;;;;4990211;28;20014;-76
2022/07/13 12:23:07;;;;;;;1.85;0.77;;;31.10;50.80;;;;;;4990219;28;20481;-77
2022/07/13 12:25:37;;;;;;;0.90;0.90;;;31.90;48.10;;;;;;4990282;28;20042;-76
2022/07/13 12:28:04;;;;;;;;;;;33.40;48.10;;;;;;4990249;28;20121;-76
2022/07/13 12:30:31;;;;;;;0.82;0.80;;;32.60;46.20;;;;;;4990090;28;20387;-77
2022/07/13 12:33:05;;;;;;;0.90;0.90;;;31.90;48.00;;;;;;4990001;28;20041;-76
2022/07/13 12:35:36;;;;;;;0.90;0.90;;;31.20;46.90;;;;;;4990086;28;20041;-77
2022/07/13 12:38:05;;;;;;;0.95;0.90;;;31.20;47.90;;;;;;4989457;28;20082;-78
2022/07/13 12:40:51;;;;;;;0.63;0.63;;;31.00;45.50;;;;;;4989884;28;20026;-77
2022/07/13 12:43:22;;;;;;;0.63;0.63;;;30.10;45.20;;;;;;4989968;28;20106;-77
2022/07/13 12:45:51;;;;;;;0.98;0.60;;;29.60;46.20;;;;;;4989395;28;20089;-76
2022/07/13 12:48:18;;;;;;;0.80;0.80;;;29.30;47.00;;;;;;4987751;28;20030;-76
2022/07/13 12:50:58;;;;;;;0.60;0.60;;;29.30;48.20;;;;;;4989640;28;20037;-77
2022/07/13 12:53:24;;;;;;;0.85;0.85;;;29.40;48.80;;;;;;4989620;28;20643;-77
2022/07/13 12:55:50;;;;;;;0.80;0.80;;;29.60;47.00;;;;;;4989536;28;20749;-76
2022/07/13 12:58:16;;;;;;;1.17;0.90;;;30.00;45.70;;;;;;4989704;28;20092;-77
2022/07/13 13:00:42;;;;;;;0.80;0.80;;;29.90;46.10;;;;;;4989469;28;20563;-76